This is the latest recevied weather packets stored in our database for station/object KM8V-8. If no packets are shown the sender has not sent any weather packets the latest 10 day(s).
| Time | Temp. | Humidity | Pressure | Rain* | Wind** | Luminosity | Snow |
|---|---|---|---|---|---|---|---|
| 1777404919 | 20.56° C | 63% | 1010.8 hPa | 0 mm | - | 685 W/m² | - |
| 1777404619 | 20.56° C | 63% | 1010.8 hPa | 0 mm | - | 370 W/m² | - |
| 1777404319 | 21.11° C | 62% | 1010.8 hPa | 0 mm | - | 513 W/m² | - |
| 1777404020 | 21.67° C | 61% | 1010.8 hPa | 0 mm | - | 500 W/m² | - |
| 1777403722 | 21.67° C | 59% | 1010.8 hPa | 0 mm | - | 837 W/m² | - |
| 1777403117 | 21.11° C | 61% | 1010.8 hPa | 0 mm | - | 747 W/m² | - |
| 1777402818 | 21.11° C | 62% | 1010.7 hPa | 0 mm | - | 684 W/m² | - |
| 1777402517 | 21.11° C | 63% | 1010.7 hPa | 0 mm | - | 503 W/m² | - |
| 1777399818 | 20.56° C | 71% | 1010.5 hPa | 0 mm | - | 199 W/m² | - |
| 1777399518 | 20.56° C | 71% | 1010.5 hPa | 0 mm | - | 168 W/m² | - |
| 1777399218 | 20.56° C | 71% | 1010.4 hPa | 0 mm | - | 255 W/m² | - |
| 1777398919 | 20.56° C | 72% | 1010.4 hPa | 0 mm | - | 638 W/m² | - |
| 1777398019 | 20.56° C | 72% | 1010.4 hPa | 0 mm | - | 868 W/m² | - |
| 1777397119 | 20° C | 76% | 1010.5 hPa | 0 mm | - | 861 W/m² | - |
| 1777396819 | 19.44° C | 77% | 1010.5 hPa | 0 mm | - | 806 W/m² | - |
| 1777396219 | 19.44° C | 77% | 1010.5 hPa | 0 mm | - | 469 W/m² | - |
| 1777395624 | 19.44° C | 76% | 1010.5 hPa | 0 mm | - | 643 W/m² | - |
| 1777393819 | 18.33° C | 81% | 1010.8 hPa | 0 mm | - | 472 W/m² | - |
| 1777393520 | 18.33° C | 81% | 1010.8 hPa | 0 mm | - | 475 W/m² | - |
| 1777392920 | 17.78° C | 82% | 1011 hPa | 0 mm | - | 542 W/m² | - |
| 1777392020 | 17.78° C | 82% | 1010.9 hPa | 0 mm | - | 309 W/m² | - |
| 1777391717 | 17.78° C | 82% | 1010.9 hPa | 0 mm | - | 352 W/m² | - |
| 1777391420 | 17.78° C | 81% | 1010.8 hPa | 0 mm | - | 407 W/m² | - |
| 1777390517 | 17.78° C | 80% | 1010.7 hPa | 0 mm | - | 605 W/m² | - |
| 1777390221 | 17.78° C | 81% | 1010.7 hPa | 0 mm | - | 694 W/m² | - |
* Rain latest hour (hover to see other rain measurements)
** Current wind speed in m/s (hover to see current wind gust speed)